sensor_id;sensor_type;location;lat;lon;timestamp;P1;durP1;ratioP1;P2;durP2;ratioP2
26040;SDS011;13816;53.628;9.950;2022-07-15T00:00:30;6.53;;;1.70;;
26040;SDS011;13816;53.628;9.950;2022-07-15T00:02:57;11.17;;;2.97;;
26040;SDS011;13816;53.628;9.950;2022-07-15T00:05:23;15.40;;;2.70;;
26040;SDS011;13816;53.628;9.950;2022-07-15T00:07:49;13.37;;;1.93;;
26040;SDS011;13816;53.628;9.950;2022-07-15T00:10:16;17.67;;;2.97;;
26040;SDS011;13816;53.628;9.950;2022-07-15T00:12:47;12.00;;;2.17;;
26040;SDS011;13816;53.628;9.950;2022-07-15T00:15:20;14.03;;;2.93;;
26040;SDS011;13816;53.628;9.950;2022-07-15T00:17:46;13.20;;;2.30;;
26040;SDS011;13816;53.628;9.950;2022-07-15T00:20:12;9.93;;;2.83;;
26040;SDS011;13816;53.628;9.950;2022-07-15T00:22:39;13.00;;;2.87;;
26040;SDS011;13816;53.628;9.950;2022-07-15T00:25:06;13.27;;;2.17;;
26040;SDS011;13816;53.628;9.950;2022-07-15T00:27:33;11.00;;;2.00;;
26040;SDS011;13816;53.628;9.950;2022-07-15T00:29:59;7.90;;;2.20;;
26040;SDS011;13816;53.628;9.950;2022-07-15T00:32:25;9.90;;;2.20;;
26040;SDS011;13816;53.628;9.950;2022-07-15T00:34:52;8.53;;;2.00;;
26040;SDS011;13816;53.628;9.950;2022-07-15T00:37:18;12.23;;;2.23;;
26040;SDS011;13816;53.628;9.950;2022-07-15T00:39:45;7.43;;;1.93;;
26040;SDS011;13816;53.628;9.950;2022-07-15T00:42:11;5.70;;;1.80;;
26040;SDS011;13816;53.628;9.950;2022-07-15T00:44:57;13.37;;;2.93;;
26040;SDS011;13816;53.628;9.950;2022-07-15T00:47:23;10.20;;;2.30;;
26040;SDS011;13816;53.628;9.950;2022-07-15T00:49:50;5.47;;;1.90;;
26040;SDS011;13816;53.628;9.950;2022-07-15T00:52:17;7.87;;;2.20;;
26040;SDS011;13816;53.628;9.950;2022-07-15T00:54:43;8.87;;;2.07;;
26040;SDS011;13816;53.628;9.950;2022-07-15T00:57:15;9.40;;;1.97;;
26040;SDS011;13816;53.628;9.950;2022-07-15T00:59:42;8.10;;;1.97;;
26040;SDS011;13816;53.628;9.950;2022-07-15T01:02:10;8.33;;;1.73;;
26040;SDS011;13816;53.628;9.950;2022-07-15T01:07:05;9.70;;;2.00;;
26040;SDS011;13816;53.628;9.950;2022-07-15T01:09:32;11.07;;;2.30;;
26040;SDS011;13816;53.628;9.950;2022-07-15T01:11:58;7.27;;;2.30;;
26040;SDS011;13816;53.628;9.950;2022-07-15T01:14:24;9.30;;;2.00;;
26040;SDS011;13816;53.628;9.950;2022-07-15T01:16:51;12.83;;;2.20;;
26040;SDS011;13816;53.628;9.950;2022-07-15T01:19:18;5.93;;;1.70;;
26040;SDS011;13816;53.628;9.950;2022-07-15T01:21:45;4.30;;;1.40;;
26040;SDS011;13816;53.628;9.950;2022-07-15T01:24:11;6.57;;;1.40;;
26040;SDS011;13816;53.628;9.950;2022-07-15T01:26:45;9.00;;;2.10;;
26040;SDS011;13816;53.628;9.950;2022-07-15T01:29:15;15.97;;;2.30;;
26040;SDS011;13816;53.628;9.950;2022-07-15T01:31:43;7.80;;;2.00;;
26040;SDS011;13816;53.628;9.950;2022-07-15T01:34:10;8.60;;;1.60;;
26040;SDS011;13816;53.628;9.950;2022-07-15T01:36:36;17.80;;;2.30;;
26040;SDS011;13816;53.628;9.950;2022-07-15T01:39:03;8.40;;;2.13;;
26040;SDS011;13816;53.628;9.950;2022-07-15T01:41:29;8.30;;;1.50;;
26040;SDS011;13816;53.628;9.950;2022-07-15T01:43:55;6.00;;;1.67;;
26040;SDS011;13816;53.628;9.950;2022-07-15T01:46:22;12.27;;;2.13;;
26040;SDS011;13816;53.628;9.950;2022-07-15T01:48:48;5.93;;;1.50;;
26040;SDS011;13816;53.628;9.950;2022-07-15T01:51:49;6.60;;;1.70;;
26040;SDS011;13816;53.628;9.950;2022-07-15T01:54:16;13.30;;;2.27;;
26040;SDS011;13816;53.628;9.950;2022-07-15T01:56:43;13.97;;;1.70;;
26040;SDS011;13816;53.628;9.950;2022-07-15T01:59:10;9.10;;;1.93;;
26040;SDS011;13816;53.628;9.950;2022-07-15T02:01:36;6.80;;;1.97;;
26040;SDS011;13816;53.628;9.950;2022-07-15T02:04:07;9.37;;;2.17;;
26040;SDS011;13816;53.628;9.950;2022-07-15T02:06:33;10.63;;;1.70;;
26040;SDS011;13816;53.628;9.950;2022-07-15T02:08:59;4.20;;;1.17;;
26040;SDS011;13816;53.628;9.950;2022-07-15T02:11:28;12.40;;;1.97;;
26040;SDS011;13816;53.628;9.950;2022-07-15T02:13:54;1.80;;;1.20;;
26040;SDS011;13816;53.628;9.950;2022-07-15T02:16:26;3.90;;;1.43;;
26040;SDS011;13816;53.628;9.950;2022-07-15T02:18:52;4.60;;;1.37;;
26040;SDS011;13816;53.628;9.950;2022-07-15T02:21:18;8.03;;;1.57;;
26040;SDS011;13816;53.628;9.950;2022-07-15T02:23:44;7.10;;;1.20;;
26040;SDS011;13816;53.628;9.950;2022-07-15T02:26:11;10.77;;;1.77;;
26040;SDS011;13816;53.628;9.950;2022-07-15T02:28:37;2.50;;;1.20;;
26040;SDS011;13816;53.628;9.950;2022-07-15T02:31:03;7.20;;;1.30;;
26040;SDS011;13816;53.628;9.950;2022-07-15T02:33:33;4.33;;;1.40;;
26040;SDS011;13816;53.628;9.950;2022-07-15T02:36:07;8.60;;;1.30;;
26040;SDS011;13816;53.628;9.950;2022-07-15T02:38:33;12.50;;;1.60;;
26040;SDS011;13816;53.628;9.950;2022-07-15T02:40:59;5.47;;;1.47;;
26040;SDS011;13816;53.628;9.950;2022-07-15T02:43:26;2.97;;;1.17;;
26040;SDS011;13816;53.628;9.950;2022-07-15T02:45:53;6.43;;;1.60;;
26040;SDS011;13816;53.628;9.950;2022-07-15T02:48:20;3.60;;;1.10;;
26040;SDS011;13816;53.628;9.950;2022-07-15T02:50:48;5.87;;;1.77;;
26040;SDS011;13816;53.628;9.950;2022-07-15T02:53:15;6.00;;;1.30;;
26040;SDS011;13816;53.628;9.950;2022-07-15T02:55:43;3.00;;;1.40;;
26040;SDS011;13816;53.628;9.950;2022-07-15T02:58:09;7.67;;;1.57;;
26040;SDS011;13816;53.628;9.950;2022-07-15T03:00:37;5.43;;;2.13;;
26040;SDS011;13816;53.628;9.950;2022-07-15T03:03:04;8.43;;;1.73;;
26040;SDS011;13816;53.628;9.950;2022-07-15T03:05:33;8.10;;;1.43;;
26040;SDS011;13816;53.628;9.950;2022-07-15T03:08:00;4.70;;;1.57;;
26040;SDS011;13816;53.628;9.950;2022-07-15T03:10:27;4.43;;;1.53;;
26040;SDS011;13816;53.628;9.950;2022-07-15T03:12:53;4.70;;;1.40;;
26040;SDS011;13816;53.628;9.950;2022-07-15T03:15:21;10.73;;;2.40;;
26040;SDS011;13816;53.628;9.950;2022-07-15T03:17:47;8.80;;;1.20;;
26040;SDS011;13816;53.628;9.950;2022-07-15T03:20:13;8.97;;;2.00;;
26040;SDS011;13816;53.628;9.950;2022-07-15T03:22:46;11.13;;;1.83;;
26040;SDS011;13816;53.628;9.950;2022-07-15T03:25:12;2.67;;;1.10;;
26040;SDS011;13816;53.628;9.950;2022-07-15T03:27:39;5.20;;;2.27;;
26040;SDS011;13816;53.628;9.950;2022-07-15T03:30:08;3.53;;;1.20;;
26040;SDS011;13816;53.628;9.950;2022-07-15T03:32:36;2.67;;;1.00;;
26040;SDS011;13816;53.628;9.950;2022-07-15T03:35:03;9.97;;;1.53;;
26040;SDS011;13816;53.628;9.950;2022-07-15T03:37:33;6.93;;;1.43;;
26040;SDS011;13816;53.628;9.950;2022-07-15T03:39:59;4.30;;;1.70;;
26040;SDS011;13816;53.628;9.950;2022-07-15T03:42:26;6.80;;;2.00;;
26040;SDS011;13816;53.628;9.950;2022-07-15T03:44:53;5.50;;;1.67;;
26040;SDS011;13816;53.628;9.950;2022-07-15T03:47:19;8.20;;;1.60;;
26040;SDS011;13816;53.628;9.950;2022-07-15T03:49:46;5.53;;;1.60;;
26040;SDS011;13816;53.628;9.950;2022-07-15T03:52:13;7.60;;;1.40;;
26040;SDS011;13816;53.628;9.950;2022-07-15T03:54:39;3.10;;;1.30;;
26040;SDS011;13816;53.628;9.950;2022-07-15T03:57:05;7.00;;;1.60;;
26040;SDS011;13816;53.628;9.950;2022-07-15T03:59:31;4.70;;;1.13;;
26040;SDS011;13816;53.628;9.950;2022-07-15T04:01:57;6.50;;;1.53;;
26040;SDS011;13816;53.628;9.950;2022-07-15T04:04:23;4.80;;;1.27;;
26040;SDS011;13816;53.628;9.950;2022-07-15T04:06:50;4.70;;;1.83;;
26040;SDS011;13816;53.628;9.950;2022-07-15T04:09:16;4.40;;;1.23;;
26040;SDS011;13816;53.628;9.950;2022-07-15T04:11:43;4.87;;;1.53;;
26040;SDS011;13816;53.628;9.950;2022-07-15T04:14:13;10.20;;;1.20;;
26040;SDS011;13816;53.628;9.950;2022-07-15T04:16:40;5.60;;;1.40;;
26040;SDS011;13816;53.628;9.950;2022-07-15T04:19:20;3.40;;;0.93;;
26040;SDS011;13816;53.628;9.950;2022-07-15T04:21:46;4.17;;;1.37;;
26040;SDS011;13816;53.628;9.950;2022-07-15T04:24:13;5.57;;;1.30;;
26040;SDS011;13816;53.628;9.950;2022-07-15T04:26:41;7.00;;;1.60;;
26040;SDS011;13816;53.628;9.950;2022-07-15T04:29:07;8.60;;;1.20;;
26040;SDS011;13816;53.628;9.950;2022-07-15T04:31:34;7.50;;;1.40;;
26040;SDS011;13816;53.628;9.950;2022-07-15T04:34:11;3.17;;;1.67;;
26040;SDS011;13816;53.628;9.950;2022-07-15T04:36:40;9.37;;;1.90;;
26040;SDS011;13816;53.628;9.950;2022-07-15T04:39:07;6.40;;;1.80;;
26040;SDS011;13816;53.628;9.950;2022-07-15T04:41:33;4.83;;;1.37;;
26040;SDS011;13816;53.628;9.950;2022-07-15T04:44:02;3.80;;;1.50;;
26040;SDS011;13816;53.628;9.950;2022-07-15T04:46:30;4.97;;;1.27;;
26040;SDS011;13816;53.628;9.950;2022-07-15T04:49:13;6.77;;;1.67;;
26040;SDS011;13816;53.628;9.950;2022-07-15T04:51:58;11.10;;;1.80;;
26040;SDS011;13816;53.628;9.950;2022-07-15T04:54:24;6.87;;;1.30;;
26040;SDS011;13816;53.628;9.950;2022-07-15T04:56:50;9.77;;;1.83;;
26040;SDS011;13816;53.628;9.950;2022-07-15T04:59:17;11.07;;;2.37;;
26040;SDS011;13816;53.628;9.950;2022-07-15T05:01:43;7.27;;;1.53;;
26040;SDS011;13816;53.628;9.950;2022-07-15T05:04:17;14.60;;;2.00;;
26040;SDS011;13816;53.628;9.950;2022-07-15T05:06:43;5.53;;;1.57;;
26040;SDS011;13816;53.628;9.950;2022-07-15T05:09:09;7.60;;;1.73;;
26040;SDS011;13816;53.628;9.950;2022-07-15T05:11:37;9.70;;;1.90;;
26040;SDS011;13816;53.628;9.950;2022-07-15T05:14:03;4.27;;;1.23;;
26040;SDS011;13816;53.628;9.950;2022-07-15T05:16:29;6.50;;;2.03;;
26040;SDS011;13816;53.628;9.950;2022-07-15T05:18:56;6.90;;;1.23;;
26040;SDS011;13816;53.628;9.950;2022-07-15T05:21:22;13.67;;;1.80;;
26040;SDS011;13816;53.628;9.950;2022-07-15T05:23:48;7.60;;;2.00;;
26040;SDS011;13816;53.628;9.950;2022-07-15T05:26:14;7.30;;;1.50;;
26040;SDS011;13816;53.628;9.950;2022-07-15T05:28:43;6.77;;;2.07;;
26040;SDS011;13816;53.628;9.950;2022-07-15T05:31:09;8.23;;;1.70;;
26040;SDS011;13816;53.628;9.950;2022-07-15T05:33:35;4.47;;;1.13;;
26040;SDS011;13816;53.628;9.950;2022-07-15T05:36:04;7.90;;;2.13;;
26040;SDS011;13816;53.628;9.950;2022-07-15T05:38:30;9.33;;;1.80;;
26040;SDS011;13816;53.628;9.950;2022-07-15T05:40:59;11.83;;;1.70;;
26040;SDS011;13816;53.628;9.950;2022-07-15T05:43:26;7.87;;;2.40;;
26040;SDS011;13816;53.628;9.950;2022-07-15T05:45:53;6.00;;;1.60;;
26040;SDS011;13816;53.628;9.950;2022-07-15T05:48:21;3.33;;;1.33;;
26040;SDS011;13816;53.628;9.950;2022-07-15T05:50:50;7.80;;;1.70;;
26040;SDS011;13816;53.628;9.950;2022-07-15T05:53:16;4.43;;;1.87;;
26040;SDS011;13816;53.628;9.950;2022-07-15T05:55:43;3.00;;;1.37;;
26040;SDS011;13816;53.628;9.950;2022-07-15T05:58:15;6.20;;;1.48;;
26040;SDS011;13816;53.628;9.950;2022-07-15T06:00:41;4.97;;;1.33;;
26040;SDS011;13816;53.628;9.950;2022-07-15T06:03:08;2.63;;;1.00;;
26040;SDS011;13816;53.628;9.950;2022-07-15T06:05:38;5.50;;;1.43;;
26040;SDS011;13816;53.628;9.950;2022-07-15T06:08:05;11.20;;;1.27;;
26040;SDS011;13816;53.628;9.950;2022-07-15T06:10:36;4.33;;;1.97;;
26040;SDS011;13816;53.628;9.950;2022-07-15T06:13:02;8.27;;;1.60;;
26040;SDS011;13816;53.628;9.950;2022-07-15T06:15:29;3.80;;;1.57;;
26040;SDS011;13816;53.628;9.950;2022-07-15T06:17:57;7.33;;;1.87;;
26040;SDS011;13816;53.628;9.950;2022-07-15T06:20:26;7.17;;;1.40;;
26040;SDS011;13816;53.628;9.950;2022-07-15T06:22:53;9.13;;;1.40;;
26040;SDS011;13816;53.628;9.950;2022-07-15T06:25:21;9.50;;;2.03;;
26040;SDS011;13816;53.628;9.950;2022-07-15T06:27:50;4.53;;;1.77;;
26040;SDS011;13816;53.628;9.950;2022-07-15T06:30:16;8.70;;;1.87;;
26040;SDS011;13816;53.628;9.950;2022-07-15T06:32:43;4.87;;;1.10;;
26040;SDS011;13816;53.628;9.950;2022-07-15T06:35:09;5.17;;;1.43;;
26040;SDS011;13816;53.628;9.950;2022-07-15T06:37:36;9.10;;;1.97;;
26040;SDS011;13816;53.628;9.950;2022-07-15T06:40:02;6.03;;;1.40;;
26040;SDS011;13816;53.628;9.950;2022-07-15T06:42:30;4.60;;;1.30;;
26040;SDS011;13816;53.628;9.950;2022-07-15T06:45:00;5.17;;;1.10;;
26040;SDS011;13816;53.628;9.950;2022-07-15T06:47:26;5.23;;;1.13;;
26040;SDS011;13816;53.628;9.950;2022-07-15T06:49:56;5.23;;;1.63;;
26040;SDS011;13816;53.628;9.950;2022-07-15T06:52:25;5.10;;;1.47;;
26040;SDS011;13816;53.628;9.950;2022-07-15T06:54:52;6.87;;;1.50;;
26040;SDS011;13816;53.628;9.950;2022-07-15T06:57:19;9.20;;;1.53;;
26040;SDS011;13816;53.628;9.950;2022-07-15T06:59:45;10.73;;;1.97;;
26040;SDS011;13816;53.628;9.950;2022-07-15T07:02:11;9.03;;;1.40;;
26040;SDS011;13816;53.628;9.950;2022-07-15T07:04:40;3.57;;;1.70;;
26040;SDS011;13816;53.628;9.950;2022-07-15T07:07:07;9.00;;;2.00;;
26040;SDS011;13816;53.628;9.950;2022-07-15T07:09:33;8.57;;;1.80;;
26040;SDS011;13816;53.628;9.950;2022-07-15T07:12:00;17.87;;;1.67;;
26040;SDS011;13816;53.628;9.950;2022-07-15T07:14:26;6.40;;;1.60;;
26040;SDS011;13816;53.628;9.950;2022-07-15T07:16:52;3.73;;;1.60;;
26040;SDS011;13816;53.628;9.950;2022-07-15T07:19:18;8.23;;;1.67;;
26040;SDS011;13816;53.628;9.950;2022-07-15T07:21:44;6.30;;;1.27;;
26040;SDS011;13816;53.628;9.950;2022-07-15T07:24:10;6.80;;;2.00;;
26040;SDS011;13816;53.628;9.950;2022-07-15T07:26:37;11.50;;;1.30;;
26040;SDS011;13816;53.628;9.950;2022-07-15T07:29:03;8.20;;;1.43;;
26040;SDS011;13816;53.628;9.950;2022-07-15T07:31:30;5.47;;;1.40;;
26040;SDS011;13816;53.628;9.950;2022-07-15T07:33:59;7.77;;;1.53;;
26040;SDS011;13816;53.628;9.950;2022-07-15T07:36:28;3.40;;;1.30;;
26040;SDS011;13816;53.628;9.950;2022-07-15T07:38:57;5.90;;;1.80;;
26040;SDS011;13816;53.628;9.950;2022-07-15T07:41:23;6.10;;;1.40;;
26040;SDS011;13816;53.628;9.950;2022-07-15T07:43:55;4.00;;;1.70;;
26040;SDS011;13816;53.628;9.950;2022-07-15T07:46:24;4.97;;;1.37;;
26040;SDS011;13816;53.628;9.950;2022-07-15T07:48:53;4.43;;;1.23;;
26040;SDS011;13816;53.628;9.950;2022-07-15T07:51:21;4.13;;;1.30;;
26040;SDS011;13816;53.628;9.950;2022-07-15T07:53:47;3.63;;;1.50;;
26040;SDS011;13816;53.628;9.950;2022-07-15T07:56:16;2.70;;;1.43;;
26040;SDS011;13816;53.628;9.950;2022-07-15T07:58:43;6.10;;;1.47;;
26040;SDS011;13816;53.628;9.950;2022-07-15T08:01:12;1.90;;;0.93;;
26040;SDS011;13816;53.628;9.950;2022-07-15T08:03:40;4.00;;;1.10;;
26040;SDS011;13816;53.628;9.950;2022-07-15T08:06:13;5.73;;;1.40;;
26040;SDS011;13816;53.628;9.950;2022-07-15T08:08:49;3.53;;;0.93;;
26040;SDS011;13816;53.628;9.950;2022-07-15T08:11:21;10.10;;;1.20;;
26040;SDS011;13816;53.628;9.950;2022-07-15T08:14:08;9.43;;;1.40;;
26040;SDS011;13816;53.628;9.950;2022-07-15T08:16:59;4.10;;;1.10;;
26040;SDS011;13816;53.628;9.950;2022-07-15T08:20:12;6.63;;;1.33;;
26040;SDS011;13816;53.628;9.950;2022-07-15T08:26:34;2.93;;;1.17;;
26040;SDS011;13816;53.628;9.950;2022-07-15T08:29:07;4.27;;;1.30;;
26040;SDS011;13816;53.628;9.950;2022-07-15T08:31:54;6.50;;;1.77;;
26040;SDS011;13816;53.628;9.950;2022-07-15T08:34:23;7.37;;;1.57;;
26040;SDS011;13816;53.628;9.950;2022-07-15T08:36:59;3.93;;;1.53;;
26040;SDS011;13816;53.628;9.950;2022-07-15T08:39:31;4.97;;;1.50;;
26040;SDS011;13816;53.628;9.950;2022-07-15T08:42:26;5.87;;;1.37;;
26040;SDS011;13816;53.628;9.950;2022-07-15T08:45:17;3.97;;;1.20;;
26040;SDS011;13816;53.628;9.950;2022-07-15T08:47:48;10.50;;;1.70;;
26040;SDS011;13816;53.628;9.950;2022-07-15T08:50:19;3.07;;;1.07;;
26040;SDS011;13816;53.628;9.950;2022-07-15T08:52:48;5.10;;;1.10;;
26040;SDS011;13816;53.628;9.950;2022-07-15T08:55:16;7.30;;;1.17;;
26040;SDS011;13816;53.628;9.950;2022-07-15T08:57:52;3.60;;;1.20;;
26040;SDS011;13816;53.628;9.950;2022-07-15T09:04:06;2.90;;;1.03;;
26040;SDS011;13816;53.628;9.950;2022-07-15T09:06:39;6.93;;;1.33;;
26040;SDS011;13816;53.628;9.950;2022-07-15T09:09:50;8.03;;;1.00;;
26040;SDS011;13816;53.628;9.950;2022-07-15T09:12:39;5.50;;;1.13;;
26040;SDS011;13816;53.628;9.950;2022-07-15T09:20:35;3.97;;;1.00;;
26040;SDS011;13816;53.628;9.950;2022-07-15T09:23:24;3.50;;;1.17;;
26040;SDS011;13816;53.628;9.950;2022-07-15T09:29:46;3.13;;;0.83;;
26040;SDS011;13816;53.628;9.950;2022-07-15T09:32:47;4.37;;;1.03;;
26040;SDS011;13816;53.628;9.950;2022-07-15T09:35:38;3.47;;;1.40;;
26040;SDS011;13816;53.628;9.950;2022-07-15T09:38:28;7.23;;;1.33;;
26040;SDS011;13816;53.628;9.950;2022-07-15T09:47:41;4.60;;;1.00;;
26040;SDS011;13816;53.628;9.950;2022-07-15T09:50:49;1.20;;;0.83;;
26040;SDS011;13816;53.628;9.950;2022-07-15T09:53:46;2.30;;;1.10;;
26040;SDS011;13816;53.628;9.950;2022-07-15T10:04:54;7.03;;;1.20;;
26040;SDS011;13816;53.628;9.950;2022-07-15T10:07:21;6.50;;;1.30;;
26040;SDS011;13816;53.628;9.950;2022-07-15T10:09:50;3.53;;;1.20;;
26040;SDS011;13816;53.628;9.950;2022-07-15T10:12:28;2.63;;;0.70;;
26040;SDS011;13816;53.628;9.950;2022-07-15T10:25:31;2.03;;;0.80;;
26040;SDS011;13816;53.628;9.950;2022-07-15T10:31:13;3.50;;;0.93;;
26040;SDS011;13816;53.628;9.950;2022-07-15T10:34:32;4.97;;;0.87;;
26040;SDS011;13816;53.628;9.950;2022-07-15T10:47:46;4.97;;;1.13;;
26040;SDS011;13816;53.628;9.950;2022-07-15T11:10:28;3.97;;;1.13;;
26040;SDS011;13816;53.628;9.950;2022-07-15T11:13:51;3.23;;;1.00;;
26040;SDS011;13816;53.628;9.950;2022-07-15T11:23:11;7.03;;;1.00;;
26040;SDS011;13816;53.628;9.950;2022-07-15T11:25:39;4.10;;;0.87;;
26040;SDS011;13816;53.628;9.950;2022-07-15T11:28:07;2.60;;;0.70;;
26040;SDS011;13816;53.628;9.950;2022-07-15T11:33:03;7.20;;;1.03;;
26040;SDS011;13816;53.628;9.950;2022-07-15T11:35:30;3.30;;;1.20;;
26040;SDS011;13816;53.628;9.950;2022-07-15T11:37:57;1.67;;;0.87;;
26040;SDS011;13816;53.628;9.950;2022-07-15T11:40:24;3.13;;;0.83;;
26040;SDS011;13816;53.628;9.950;2022-07-15T11:43:12;1.77;;;0.80;;
26040;SDS011;13816;53.628;9.950;2022-07-15T11:45:57;4.20;;;1.10;;
26040;SDS011;13816;53.628;9.950;2022-07-15T11:48:23;1.67;;;0.67;;
26040;SDS011;13816;53.628;9.950;2022-07-15T11:50:50;2.50;;;0.73;;
26040;SDS011;13816;53.628;9.950;2022-07-15T11:53:17;3.43;;;1.03;;
26040;SDS011;13816;53.628;9.950;2022-07-15T11:55:54;1.67;;;0.80;;
26040;SDS011;13816;53.628;9.950;2022-07-15T11:58:30;2.93;;;0.77;;
26040;SDS011;13816;53.628;9.950;2022-07-15T12:00:58;2.37;;;0.90;;
26040;SDS011;13816;53.628;9.950;2022-07-15T12:03:29;4.23;;;0.90;;
26040;SDS011;13816;53.628;9.950;2022-07-15T12:06:01;1.83;;;1.10;;
26040;SDS011;13816;53.628;9.950;2022-07-15T12:08:38;4.90;;;1.70;;
26040;SDS011;13816;53.628;9.950;2022-07-15T12:14:02;8.50;;;1.53;;
26040;SDS011;13816;53.628;9.950;2022-07-15T12:16:33;2.10;;;0.83;;
26040;SDS011;13816;53.628;9.950;2022-07-15T12:19:06;3.80;;;1.13;;
26040;SDS011;13816;53.628;9.950;2022-07-15T12:21:33;4.40;;;0.80;;
26040;SDS011;13816;53.628;9.950;2022-07-15T12:24:00;3.80;;;1.47;;
26040;SDS011;13816;53.628;9.950;2022-07-15T12:26:26;5.40;;;1.47;;
26040;SDS011;13816;53.628;9.950;2022-07-15T12:28:54;3.53;;;1.60;;
26040;SDS011;13816;53.628;9.950;2022-07-15T12:31:24;4.57;;;1.37;;
26040;SDS011;13816;53.628;9.950;2022-07-15T12:33:50;9.33;;;1.23;;
26040;SDS011;13816;53.628;9.950;2022-07-15T12:36:18;4.80;;;0.90;;
26040;SDS011;13816;53.628;9.950;2022-07-15T12:39:08;6.33;;;1.27;;
26040;SDS011;13816;53.628;9.950;2022-07-15T12:41:33;12.63;;;1.37;;
26040;SDS011;13816;53.628;9.950;2022-07-15T12:44:00;8.13;;;1.53;;
26040;SDS011;13816;53.628;9.950;2022-07-15T12:49:11;6.43;;;1.20;;
26040;SDS011;13816;53.628;9.950;2022-07-15T12:51:37;3.70;;;1.37;;
26040;SDS011;13816;53.628;9.950;2022-07-15T12:54:04;3.07;;;1.00;;
26040;SDS011;13816;53.628;9.950;2022-07-15T12:56:31;4.30;;;1.00;;
26040;SDS011;13816;53.628;9.950;2022-07-15T12:59:15;6.77;;;1.00;;
26040;SDS011;13816;53.628;9.950;2022-07-15T13:01:43;7.90;;;1.43;;
26040;SDS011;13816;53.628;9.950;2022-07-15T13:04:10;5.57;;;1.13;;
26040;SDS011;13816;53.628;9.950;2022-07-15T13:06:36;5.10;;;1.50;;
26040;SDS011;13816;53.628;9.950;2022-07-15T13:09:02;23.13;;;2.17;;
26040;SDS011;13816;53.628;9.950;2022-07-15T13:11:28;8.90;;;1.17;;
26040;SDS011;13816;53.628;9.950;2022-07-15T13:13:54;6.17;;;1.10;;
26040;SDS011;13816;53.628;9.950;2022-07-15T13:16:22;5.37;;;1.00;;
26040;SDS011;13816;53.628;9.950;2022-07-15T13:18:48;3.13;;;1.00;;
26040;SDS011;13816;53.628;9.950;2022-07-15T13:21:14;3.47;;;0.97;;
26040;SDS011;13816;53.628;9.950;2022-07-15T13:23:40;4.87;;;1.07;;
26040;SDS011;13816;53.628;9.950;2022-07-15T13:26:06;5.40;;;1.60;;
26040;SDS011;13816;53.628;9.950;2022-07-15T13:28:33;3.00;;;1.20;;
26040;SDS011;13816;53.628;9.950;2022-07-15T13:30:59;1.97;;;0.90;;
26040;SDS011;13816;53.628;9.950;2022-07-15T13:33:25;1.83;;;1.00;;
26040;SDS011;13816;53.628;9.950;2022-07-15T13:35:51;4.80;;;1.10;;
26040;SDS011;13816;53.628;9.950;2022-07-15T13:38:19;10.43;;;1.40;;
26040;SDS011;13816;53.628;9.950;2022-07-15T13:40:45;3.83;;;0.60;;
26040;SDS011;13816;53.628;9.950;2022-07-15T13:43:11;2.83;;;1.00;;
26040;SDS011;13816;53.628;9.950;2022-07-15T13:45:39;3.70;;;1.00;;
26040;SDS011;13816;53.628;9.950;2022-07-15T13:48:05;1.40;;;0.70;;
26040;SDS011;13816;53.628;9.950;2022-07-15T13:50:31;3.97;;;0.70;;
26040;SDS011;13816;53.628;9.950;2022-07-15T13:53:16;6.30;;;1.40;;
26040;SDS011;13816;53.628;9.950;2022-07-15T13:55:42;5.70;;;1.33;;
26040;SDS011;13816;53.628;9.950;2022-07-15T13:58:08;1.73;;;0.87;;
26040;SDS011;13816;53.628;9.950;2022-07-15T14:00:35;1.60;;;1.03;;
26040;SDS011;13816;53.628;9.950;2022-07-15T14:03:04;2.90;;;0.80;;
26040;SDS011;13816;53.628;9.950;2022-07-15T14:05:30;2.97;;;1.10;;
26040;SDS011;13816;53.628;9.950;2022-07-15T14:07:56;2.97;;;0.80;;
26040;SDS011;13816;53.628;9.950;2022-07-15T14:10:22;5.60;;;1.50;;
26040;SDS011;13816;53.628;9.950;2022-07-15T14:12:48;3.43;;;1.33;;
26040;SDS011;13816;53.628;9.950;2022-07-15T14:15:16;1.63;;;0.73;;
26040;SDS011;13816;53.628;9.950;2022-07-15T14:17:42;7.77;;;1.30;;
26040;SDS011;13816;53.628;9.950;2022-07-15T14:20:08;8.23;;;1.10;;
26040;SDS011;13816;53.628;9.950;2022-07-15T14:22:34;1.47;;;0.70;;
26040;SDS011;13816;53.628;9.950;2022-07-15T14:25:01;3.37;;;1.30;;
26040;SDS011;13816;53.628;9.950;2022-07-15T14:27:27;7.70;;;1.00;;
26040;SDS011;13816;53.628;9.950;2022-07-15T14:29:53;3.30;;;0.80;;
26040;SDS011;13816;53.628;9.950;2022-07-15T14:32:20;3.80;;;0.87;;
26040;SDS011;13816;53.628;9.950;2022-07-15T14:34:46;2.43;;;0.83;;
26040;SDS011;13816;53.628;9.950;2022-07-15T14:37:12;4.67;;;1.13;;
26040;SDS011;13816;53.628;9.950;2022-07-15T14:39:38;3.20;;;0.80;;
26040;SDS011;13816;53.628;9.950;2022-07-15T14:42:04;1.00;;;0.90;;
26040;SDS011;13816;53.628;9.950;2022-07-15T14:44:30;3.47;;;1.23;;
26040;SDS011;13816;53.628;9.950;2022-07-15T14:46:56;2.00;;;0.87;;
26040;SDS011;13816;53.628;9.950;2022-07-15T14:49:23;2.43;;;0.87;;
26040;SDS011;13816;53.628;9.950;2022-07-15T14:51:49;1.23;;;0.80;;
26040;SDS011;13816;53.628;9.950;2022-07-15T14:54:16;5.10;;;0.83;;
26040;SDS011;13816;53.628;9.950;2022-07-15T14:56:42;1.57;;;0.73;;
26040;SDS011;13816;53.628;9.950;2022-07-15T14:59:08;4.50;;;0.93;;
26040;SDS011;13816;53.628;9.950;2022-07-15T15:01:34;4.37;;;0.80;;
26040;SDS011;13816;53.628;9.950;2022-07-15T15:04:00;8.03;;;0.93;;
26040;SDS011;13816;53.628;9.950;2022-07-15T15:06:26;3.60;;;1.00;;
26040;SDS011;13816;53.628;9.950;2022-07-15T15:08:52;4.33;;;0.73;;
26040;SDS011;13816;53.628;9.950;2022-07-15T15:11:18;3.60;;;1.00;;
26040;SDS011;13816;53.628;9.950;2022-07-15T15:13:45;1.83;;;0.80;;
26040;SDS011;13816;53.628;9.950;2022-07-15T15:16:13;3.13;;;1.20;;
26040;SDS011;13816;53.628;9.950;2022-07-15T15:18:39;4.10;;;1.13;;
26040;SDS011;13816;53.628;9.950;2022-07-15T15:21:07;2.70;;;1.10;;
26040;SDS011;13816;53.628;9.950;2022-07-15T15:23:33;6.57;;;1.40;;
26040;SDS011;13816;53.628;9.950;2022-07-15T15:25:59;2.20;;;0.80;;
26040;SDS011;13816;53.628;9.950;2022-07-15T15:28:44;3.93;;;0.80;;
26040;SDS011;13816;53.628;9.950;2022-07-15T15:31:10;7.00;;;1.17;;
26040;SDS011;13816;53.628;9.950;2022-07-15T15:33:36;5.03;;;0.83;;
26040;SDS011;13816;53.628;9.950;2022-07-15T15:36:02;3.43;;;0.90;;
26040;SDS011;13816;53.628;9.950;2022-07-15T15:38:28;5.63;;;1.57;;
26040;SDS011;13816;53.628;9.950;2022-07-15T15:40:55;3.53;;;0.80;;
26040;SDS011;13816;53.628;9.950;2022-07-15T15:43:21;3.43;;;0.77;;
26040;SDS011;13816;53.628;9.950;2022-07-15T15:45:47;6.40;;;1.30;;
26040;SDS011;13816;53.628;9.950;2022-07-15T15:48:14;8.80;;;1.30;;
26040;SDS011;13816;53.628;9.950;2022-07-15T15:50:40;7.20;;;1.00;;
26040;SDS011;13816;53.628;9.950;2022-07-15T15:53:06;1.77;;;0.80;;
26040;SDS011;13816;53.628;9.950;2022-07-15T15:55:32;2.38;;;0.90;;
26040;SDS011;13816;53.628;9.950;2022-07-15T15:57:58;1.53;;;0.87;;
26040;SDS011;13816;53.628;9.950;2022-07-15T16:00:24;3.80;;;1.10;;
26040;SDS011;13816;53.628;9.950;2022-07-15T16:02:50;4.40;;;0.80;;
26040;SDS011;13816;53.628;9.950;2022-07-15T16:05:16;6.53;;;1.03;;
26040;SDS011;13816;53.628;9.950;2022-07-15T16:07:43;4.23;;;0.80;;
26040;SDS011;13816;53.628;9.950;2022-07-15T16:10:09;3.77;;;1.07;;
26040;SDS011;13816;53.628;9.950;2022-07-15T16:12:35;4.87;;;1.30;;
26040;SDS011;13816;53.628;9.950;2022-07-15T16:15:02;1.53;;;0.83;;
26040;SDS011;13816;53.628;9.950;2022-07-15T16:17:28;4.57;;;1.00;;
26040;SDS011;13816;53.628;9.950;2022-07-15T16:19:54;3.40;;;1.10;;
26040;SDS011;13816;53.628;9.950;2022-07-15T16:22:21;2.47;;;0.80;;
26040;SDS011;13816;53.628;9.950;2022-07-15T16:25:06;2.87;;;0.90;;
26040;SDS011;13816;53.628;9.950;2022-07-15T16:27:32;6.60;;;1.00;;
26040;SDS011;13816;53.628;9.950;2022-07-15T16:29:58;7.53;;;1.13;;
26040;SDS011;13816;53.628;9.950;2022-07-15T16:32:24;2.07;;;0.87;;